Current Conditions
Mostly Cloudy
Conditions



Pressure
1018.32 (hPa) - 30.07 (inHG)
Visibility

10.0 (mimiles) - 16.1 (km)
   Temperature
32  °F
0°C
16  °F
Dewpoint
51  %
 Humidity
   Wind Speed
16  mph
14  kts
26  km/h
7.2  m/s
   Wind Direction
 200°
South South
West
   Airport Data
KDTW
Location Detroit Metropolitan Wayne County Airport 20 mi (32.18 km)
Metar :KDTW 042053Z 20014KT 10SM BKN230 00/M09 A3007 RMK AO2 SLP191 T00001089 56044
Sat 4th February 16:53 pm
   Raw Metar Info
Raw METAR is the most common format in the world for the transmission of observational weather data. It is highly standardized through the International Civil Aviation Organization (ICAO), which allows it to be understood throughout most of the world.
   API Info
Data Provided by
https://www.checkwx.com/weather/KDTW
   © Info
CSS/SVG/PHP scripts were developed by weather34.com for use in the weather34 template © 2015-2023

Guide Info provided by Metar-Wikipedia